sensor_id;sensor_type;location;lat;lon;timestamp;P1;durP1;ratioP1;P2;durP2;ratioP2
21890;SDS011;11110;52.386;16.940;2023-04-08T00:00:36;28.83;;;10.80;;
21890;SDS011;11110;52.386;16.940;2023-04-08T00:03:21;25.80;;;10.17;;
21890;SDS011;11110;52.386;16.940;2023-04-08T00:05:49;32.60;;;11.40;;
21890;SDS011;11110;52.386;16.940;2023-04-08T00:08:18;27.90;;;10.13;;
21890;SDS011;11110;52.386;16.940;2023-04-08T00:10:46;26.47;;;9.53;;
21890;SDS011;11110;52.386;16.940;2023-04-08T00:13:15;31.60;;;11.00;;
21890;SDS011;11110;52.386;16.940;2023-04-08T00:15:43;28.80;;;10.00;;
21890;SDS011;11110;52.386;16.940;2023-04-08T00:18:12;26.17;;;9.60;;
21890;SDS011;11110;52.386;16.940;2023-04-08T00:20:43;24.57;;;9.70;;
21890;SDS011;11110;52.386;16.940;2023-04-08T00:23:11;23.70;;;9.27;;
21890;SDS011;11110;52.386;16.940;2023-04-08T00:25:40;24.30;;;9.00;;
21890;SDS011;11110;52.386;16.940;2023-04-08T00:28:09;27.30;;;9.77;;
21890;SDS011;11110;52.386;16.940;2023-04-08T00:30:37;23.53;;;9.53;;
21890;SDS011;11110;52.386;16.940;2023-04-08T00:33:06;24.47;;;9.93;;
21890;SDS011;11110;52.386;16.940;2023-04-08T00:35:34;28.43;;;9.93;;
21890;SDS011;11110;52.386;16.940;2023-04-08T00:38:04;24.83;;;10.23;;
21890;SDS011;11110;52.386;16.940;2023-04-08T00:40:33;27.83;;;9.57;;
21890;SDS011;11110;52.386;16.940;2023-04-08T00:43:02;26.97;;;10.10;;
21890;SDS011;11110;52.386;16.940;2023-04-08T00:45:31;25.37;;;10.03;;
21890;SDS011;11110;52.386;16.940;2023-04-08T00:48:01;26.07;;;9.13;;
21890;SDS011;11110;52.386;16.940;2023-04-08T00:50:30;29.40;;;10.80;;
21890;SDS011;11110;52.386;16.940;2023-04-08T00:52:58;25.43;;;9.93;;
21890;SDS011;11110;52.386;16.940;2023-04-08T00:55:28;24.03;;;9.70;;
21890;SDS011;11110;52.386;16.940;2023-04-08T00:57:57;27.37;;;9.43;;
21890;SDS011;11110;52.386;16.940;2023-04-08T01:00:26;27.23;;;9.83;;
21890;SDS011;11110;52.386;16.940;2023-04-08T01:03:04;27.60;;;9.50;;
21890;SDS011;11110;52.386;16.940;2023-04-08T01:05:43;24.70;;;9.97;;
21890;SDS011;11110;52.386;16.940;2023-04-08T01:08:20;30.63;;;10.50;;
21890;SDS011;11110;52.386;16.940;2023-04-08T01:10:52;26.90;;;9.93;;
21890;SDS011;11110;52.386;16.940;2023-04-08T01:13:26;27.90;;;9.70;;
21890;SDS011;11110;52.386;16.940;2023-04-08T01:15:57;33.50;;;10.37;;
21890;SDS011;11110;52.386;16.940;2023-04-08T01:18:27;26.37;;;10.23;;
21890;SDS011;11110;52.386;16.940;2023-04-08T01:20:57;24.40;;;9.23;;
21890;SDS011;11110;52.386;16.940;2023-04-08T01:23:29;28.53;;;10.27;;
21890;SDS011;11110;52.386;16.940;2023-04-08T01:26:22;27.10;;;10.10;;
21890;SDS011;11110;52.386;16.940;2023-04-08T01:28:52;27.47;;;10.70;;
21890;SDS011;11110;52.386;16.940;2023-04-08T01:31:24;24.90;;;9.67;;
21890;SDS011;11110;52.386;16.940;2023-04-08T01:33:54;31.83;;;11.00;;
21890;SDS011;11110;52.386;16.940;2023-04-08T01:36:24;30.53;;;11.13;;
21890;SDS011;11110;52.386;16.940;2023-04-08T01:38:54;30.57;;;11.17;;
21890;SDS011;11110;52.386;16.940;2023-04-08T01:41:24;26.93;;;10.27;;
21890;SDS011;11110;52.386;16.940;2023-04-08T01:43:55;30.97;;;11.33;;
21890;SDS011;11110;52.386;16.940;2023-04-08T01:46:25;26.43;;;9.77;;
21890;SDS011;11110;52.386;16.940;2023-04-08T01:48:55;31.97;;;11.70;;
21890;SDS011;11110;52.386;16.940;2023-04-08T01:51:26;30.07;;;11.20;;
21890;SDS011;11110;52.386;16.940;2023-04-08T01:53:57;28.10;;;10.70;;
21890;SDS011;11110;52.386;16.940;2023-04-08T01:56:28;31.37;;;11.20;;
21890;SDS011;11110;52.386;16.940;2023-04-08T01:58:59;32.90;;;11.20;;
21890;SDS011;11110;52.386;16.940;2023-04-08T02:01:28;28.97;;;10.57;;
21890;SDS011;11110;52.386;16.940;2023-04-08T02:03:59;30.83;;;11.20;;
21890;SDS011;11110;52.386;16.940;2023-04-08T02:06:30;35.30;;;11.73;;
21890;SDS011;11110;52.386;16.940;2023-04-08T02:09:00;38.10;;;12.13;;
21890;SDS011;11110;52.386;16.940;2023-04-08T02:11:31;29.60;;;11.47;;
21890;SDS011;11110;52.386;16.940;2023-04-08T02:13:59;31.83;;;11.57;;
21890;SDS011;11110;52.386;16.940;2023-04-08T02:16:29;27.83;;;10.77;;
21890;SDS011;11110;52.386;16.940;2023-04-08T02:19:04;33.30;;;11.50;;
21890;SDS011;11110;52.386;16.940;2023-04-08T02:21:37;29.47;;;11.30;;
21890;SDS011;11110;52.386;16.940;2023-04-08T02:24:13;33.63;;;11.57;;
21890;SDS011;11110;52.386;16.940;2023-04-08T02:26:45;35.27;;;12.10;;
21890;SDS011;11110;52.386;16.940;2023-04-08T02:29:17;34.10;;;11.93;;
21890;SDS011;11110;52.386;16.940;2023-04-08T02:31:46;29.87;;;11.60;;
21890;SDS011;11110;52.386;16.940;2023-04-08T02:34:17;27.10;;;10.97;;
21890;SDS011;11110;52.386;16.940;2023-04-08T02:36:49;28.23;;;11.07;;
21890;SDS011;11110;52.386;16.940;2023-04-08T02:39:18;29.43;;;11.37;;
21890;SDS011;11110;52.386;16.940;2023-04-08T02:41:50;34.10;;;11.60;;
21890;SDS011;11110;52.386;16.940;2023-04-08T02:44:21;35.20;;;11.80;;
21890;SDS011;11110;52.386;16.940;2023-04-08T02:46:49;33.83;;;12.33;;
21890;SDS011;11110;52.386;16.940;2023-04-08T02:49:18;32.80;;;11.70;;
21890;SDS011;11110;52.386;16.940;2023-04-08T02:51:46;34.53;;;12.70;;
21890;SDS011;11110;52.386;16.940;2023-04-08T02:54:15;26.97;;;11.07;;
21890;SDS011;11110;52.386;16.940;2023-04-08T02:56:43;31.20;;;11.43;;
21890;SDS011;11110;52.386;16.940;2023-04-08T02:59:13;30.93;;;11.97;;
21890;SDS011;11110;52.386;16.940;2023-04-08T03:01:42;34.40;;;13.03;;
21890;SDS011;11110;52.386;16.940;2023-04-08T03:04:10;30.50;;;11.87;;
21890;SDS011;11110;52.386;16.940;2023-04-08T03:06:39;29.70;;;11.63;;
21890;SDS011;11110;52.386;16.940;2023-04-08T03:09:08;30.37;;;11.87;;
21890;SDS011;11110;52.386;16.940;2023-04-08T03:11:36;36.37;;;12.73;;
21890;SDS011;11110;52.386;16.940;2023-04-08T03:14:05;33.83;;;13.30;;
21890;SDS011;11110;52.386;16.940;2023-04-08T03:16:35;32.83;;;12.87;;
21890;SDS011;11110;52.386;16.940;2023-04-08T03:19:04;33.17;;;12.57;;
21890;SDS011;11110;52.386;16.940;2023-04-08T03:21:32;30.30;;;11.80;;
21890;SDS011;11110;52.386;16.940;2023-04-08T03:24:01;30.97;;;11.27;;
21890;SDS011;11110;52.386;16.940;2023-04-08T03:26:29;36.53;;;13.60;;
21890;SDS011;11110;52.386;16.940;2023-04-08T03:28:58;35.87;;;12.50;;
21890;SDS011;11110;52.386;16.940;2023-04-08T03:31:26;31.50;;;12.10;;
21890;SDS011;11110;52.386;16.940;2023-04-08T03:33:57;33.23;;;11.90;;
21890;SDS011;11110;52.386;16.940;2023-04-08T03:36:25;33.00;;;13.23;;
21890;SDS011;11110;52.386;16.940;2023-04-08T03:38:54;30.93;;;11.77;;
21890;SDS011;11110;52.386;16.940;2023-04-08T03:41:22;32.70;;;12.63;;
21890;SDS011;11110;52.386;16.940;2023-04-08T03:43:51;33.20;;;12.30;;
21890;SDS011;11110;52.386;16.940;2023-04-08T03:46:19;33.10;;;12.73;;
21890;SDS011;11110;52.386;16.940;2023-04-08T03:48:48;33.20;;;13.00;;
21890;SDS011;11110;52.386;16.940;2023-04-08T03:51:18;37.63;;;14.00;;
21890;SDS011;11110;52.386;16.940;2023-04-08T03:53:47;32.40;;;12.27;;
21890;SDS011;11110;52.386;16.940;2023-04-08T03:56:15;36.63;;;13.27;;
21890;SDS011;11110;52.386;16.940;2023-04-08T03:58:44;38.10;;;13.47;;
21890;SDS011;11110;52.386;16.940;2023-04-08T04:01:12;34.63;;;12.70;;
21890;SDS011;11110;52.386;16.940;2023-04-08T04:03:42;32.83;;;12.23;;
21890;SDS011;11110;52.386;16.940;2023-04-08T04:06:11;34.97;;;13.23;;
21890;SDS011;11110;52.386;16.940;2023-04-08T04:08:41;33.93;;;12.87;;
21890;SDS011;11110;52.386;16.940;2023-04-08T04:11:09;32.70;;;11.77;;
21890;SDS011;11110;52.386;16.940;2023-04-08T04:13:38;36.37;;;13.10;;
21890;SDS011;11110;52.386;16.940;2023-04-08T04:16:06;34.93;;;13.10;;
21890;SDS011;11110;52.386;16.940;2023-04-08T04:18:35;33.13;;;12.63;;
21890;SDS011;11110;52.386;16.940;2023-04-08T04:21:04;36.80;;;13.87;;
21890;SDS011;11110;52.386;16.940;2023-04-08T04:23:33;34.70;;;12.93;;
21890;SDS011;11110;52.386;16.940;2023-04-08T04:26:06;31.93;;;12.10;;
21890;SDS011;11110;52.386;16.940;2023-04-08T04:28:35;34.93;;;12.90;;
21890;SDS011;11110;52.386;16.940;2023-04-08T04:31:04;31.70;;;12.20;;
21890;SDS011;11110;52.386;16.940;2023-04-08T04:33:33;33.60;;;12.67;;
21890;SDS011;11110;52.386;16.940;2023-04-08T04:36:01;37.77;;;12.97;;
21890;SDS011;11110;52.386;16.940;2023-04-08T04:38:30;35.40;;;13.63;;
21890;SDS011;11110;52.386;16.940;2023-04-08T04:40:59;33.03;;;12.30;;
21890;SDS011;11110;52.386;16.940;2023-04-08T04:43:29;33.87;;;12.67;;
21890;SDS011;11110;52.386;16.940;2023-04-08T04:45:57;31.67;;;12.03;;
21890;SDS011;11110;52.386;16.940;2023-04-08T04:48:28;31.37;;;11.97;;
21890;SDS011;11110;52.386;16.940;2023-04-08T04:50:57;36.77;;;13.63;;
21890;SDS011;11110;52.386;16.940;2023-04-08T04:53:29;33.97;;;12.87;;
21890;SDS011;11110;52.386;16.940;2023-04-08T04:55:57;31.87;;;11.90;;
21890;SDS011;11110;52.386;16.940;2023-04-08T04:58:27;33.90;;;12.43;;
21890;SDS011;11110;52.386;16.940;2023-04-08T05:00:57;34.33;;;12.63;;
21890;SDS011;11110;52.386;16.940;2023-04-08T05:03:26;33.17;;;13.53;;
21890;SDS011;11110;52.386;16.940;2023-04-08T05:05:55;33.63;;;13.07;;
21890;SDS011;11110;52.386;16.940;2023-04-08T05:08:24;37.37;;;14.07;;
21890;SDS011;11110;52.386;16.940;2023-04-08T05:10:53;30.50;;;12.20;;
21890;SDS011;11110;52.386;16.940;2023-04-08T05:13:22;37.60;;;13.33;;
21890;SDS011;11110;52.386;16.940;2023-04-08T05:15:52;34.63;;;12.97;;
21890;SDS011;11110;52.386;16.940;2023-04-08T05:18:21;41.87;;;17.27;;
21890;SDS011;11110;52.386;16.940;2023-04-08T05:20:49;37.57;;;16.27;;
21890;SDS011;11110;52.386;16.940;2023-04-08T05:23:18;43.10;;;16.37;;
21890;SDS011;11110;52.386;16.940;2023-04-08T05:25:46;32.83;;;13.40;;
21890;SDS011;11110;52.386;16.940;2023-04-08T05:28:15;30.77;;;12.37;;
21890;SDS011;11110;52.386;16.940;2023-04-08T05:30:47;35.70;;;13.03;;
21890;SDS011;11110;52.386;16.940;2023-04-08T05:33:18;28.57;;;11.93;;
21890;SDS011;11110;52.386;16.940;2023-04-08T05:35:46;35.10;;;12.67;;
21890;SDS011;11110;52.386;16.940;2023-04-08T05:38:15;28.93;;;11.60;;
21890;SDS011;11110;52.386;16.940;2023-04-08T05:40:44;34.00;;;12.50;;
21890;SDS011;11110;52.386;16.940;2023-04-08T05:43:12;33.10;;;13.03;;
21890;SDS011;11110;52.386;16.940;2023-04-08T05:45:41;47.40;;;18.17;;
21890;SDS011;11110;52.386;16.940;2023-04-08T05:48:10;54.93;;;25.23;;
21890;SDS011;11110;52.386;16.940;2023-04-08T05:50:39;38.03;;;16.77;;
21890;SDS011;11110;52.386;16.940;2023-04-08T05:53:09;42.67;;;16.10;;
21890;SDS011;11110;52.386;16.940;2023-04-08T05:55:37;40.00;;;16.37;;
21890;SDS011;11110;52.386;16.940;2023-04-08T05:58:07;35.37;;;15.03;;
21890;SDS011;11110;52.386;16.940;2023-04-08T06:00:35;38.17;;;15.90;;
21890;SDS011;11110;52.386;16.940;2023-04-08T06:03:04;33.97;;;14.30;;
21890;SDS011;11110;52.386;16.940;2023-04-08T06:05:33;32.20;;;13.90;;
21890;SDS011;11110;52.386;16.940;2023-04-08T06:08:03;35.47;;;14.60;;
21890;SDS011;11110;52.386;16.940;2023-04-08T06:10:32;34.80;;;15.07;;
21890;SDS011;11110;52.386;16.940;2023-04-08T06:13:01;33.00;;;14.60;;
21890;SDS011;11110;52.386;16.940;2023-04-08T06:15:29;37.80;;;15.40;;
21890;SDS011;11110;52.386;16.940;2023-04-08T06:17:58;31.77;;;15.07;;
21890;SDS011;11110;52.386;16.940;2023-04-08T06:20:27;31.67;;;14.77;;
21890;SDS011;11110;52.386;16.940;2023-04-08T06:22:56;36.37;;;15.87;;
21890;SDS011;11110;52.386;16.940;2023-04-08T06:25:26;25.13;;;13.27;;
21890;SDS011;11110;52.386;16.940;2023-04-08T06:27:55;34.90;;;15.13;;
21890;SDS011;11110;52.386;16.940;2023-04-08T06:30:23;36.57;;;16.00;;
21890;SDS011;11110;52.386;16.940;2023-04-08T06:32:52;26.07;;;12.97;;
21890;SDS011;11110;52.386;16.940;2023-04-08T06:35:20;29.80;;;14.87;;
21890;SDS011;11110;52.386;16.940;2023-04-08T06:37:49;32.83;;;14.23;;
21890;SDS011;11110;52.386;16.940;2023-04-08T06:40:17;30.23;;;14.53;;
21890;SDS011;11110;52.386;16.940;2023-04-08T06:42:48;29.60;;;15.50;;
21890;SDS011;11110;52.386;16.940;2023-04-08T06:45:26;33.73;;;15.50;;
21890;SDS011;11110;52.386;16.940;2023-04-08T06:47:55;27.97;;;13.80;;
21890;SDS011;11110;52.386;16.940;2023-04-08T06:50:24;27.00;;;14.17;;
21890;SDS011;11110;52.386;16.940;2023-04-08T06:52:53;27.60;;;13.50;;
21890;SDS011;11110;52.386;16.940;2023-04-08T06:55:21;29.47;;;14.90;;
21890;SDS011;11110;52.386;16.940;2023-04-08T06:57:51;23.90;;;13.40;;
21890;SDS011;11110;52.386;16.940;2023-04-08T07:00:20;35.23;;;15.47;;
21890;SDS011;11110;52.386;16.940;2023-04-08T07:02:49;28.87;;;14.37;;
21890;SDS011;11110;52.386;16.940;2023-04-08T07:05:17;29.77;;;14.77;;
21890;SDS011;11110;52.386;16.940;2023-04-08T07:07:47;31.33;;;14.37;;
21890;SDS011;11110;52.386;16.940;2023-04-08T07:10:15;24.40;;;13.00;;
21890;SDS011;11110;52.386;16.940;2023-04-08T07:12:44;26.03;;;13.63;;
21890;SDS011;11110;52.386;16.940;2023-04-08T07:15:14;28.57;;;14.27;;
21890;SDS011;11110;52.386;16.940;2023-04-08T07:17:43;28.93;;;14.10;;
21890;SDS011;11110;52.386;16.940;2023-04-08T07:20:12;26.57;;;14.20;;
21890;SDS011;11110;52.386;16.940;2023-04-08T07:22:41;28.47;;;14.87;;
21890;SDS011;11110;52.386;16.940;2023-04-08T07:25:10;26.80;;;13.10;;
21890;SDS011;11110;52.386;16.940;2023-04-08T07:27:38;25.17;;;13.47;;
21890;SDS011;11110;52.386;16.940;2023-04-08T07:30:07;27.03;;;14.07;;
21890;SDS011;11110;52.386;16.940;2023-04-08T07:32:38;30.57;;;13.90;;
21890;SDS011;11110;52.386;16.940;2023-04-08T07:35:07;33.13;;;14.33;;
21890;SDS011;11110;52.386;16.940;2023-04-08T07:37:35;30.07;;;13.73;;
21890;SDS011;11110;52.386;16.940;2023-04-08T07:40:04;36.63;;;15.00;;
21890;SDS011;11110;52.386;16.940;2023-04-08T07:42:34;32.30;;;14.83;;
21890;SDS011;11110;52.386;16.940;2023-04-08T07:45:05;39.70;;;17.23;;
21890;SDS011;11110;52.386;16.940;2023-04-08T07:47:34;34.40;;;15.97;;
21890;SDS011;11110;52.386;16.940;2023-04-08T07:50:05;30.70;;;14.83;;
21890;SDS011;11110;52.386;16.940;2023-04-08T07:52:34;30.97;;;15.17;;
21890;SDS011;11110;52.386;16.940;2023-04-08T07:55:03;34.07;;;15.57;;
21890;SDS011;11110;52.386;16.940;2023-04-08T07:57:32;26.30;;;13.83;;
21890;SDS011;11110;52.386;16.940;2023-04-08T08:00:01;29.70;;;13.87;;
21890;SDS011;11110;52.386;16.940;2023-04-08T08:02:39;29.00;;;14.40;;
21890;SDS011;11110;52.386;16.940;2023-04-08T08:05:09;29.47;;;14.00;;
21890;SDS011;11110;52.386;16.940;2023-04-08T08:07:37;26.03;;;13.93;;
21890;SDS011;11110;52.386;16.940;2023-04-08T08:10:06;29.97;;;14.17;;
21890;SDS011;11110;52.386;16.940;2023-04-08T08:12:35;30.90;;;14.60;;
21890;SDS011;11110;52.386;16.940;2023-04-08T08:15:04;38.37;;;17.47;;
21890;SDS011;11110;52.386;16.940;2023-04-08T08:17:33;35.63;;;16.87;;
21890;SDS011;11110;52.386;16.940;2023-04-08T08:20:02;26.90;;;14.43;;
21890;SDS011;11110;52.386;16.940;2023-04-08T08:22:33;52.30;;;26.90;;
21890;SDS011;11110;52.386;16.940;2023-04-08T08:25:16;45.93;;;22.97;;
21890;SDS011;11110;52.386;16.940;2023-04-08T08:27:45;53.17;;;26.10;;
21890;SDS011;11110;52.386;16.940;2023-04-08T08:30:14;34.10;;;17.27;;
21890;SDS011;11110;52.386;16.940;2023-04-08T08:32:45;28.47;;;14.27;;
21890;SDS011;11110;52.386;16.940;2023-04-08T08:35:14;28.90;;;14.40;;
21890;SDS011;11110;52.386;16.940;2023-04-08T08:37:44;31.03;;;14.83;;
21890;SDS011;11110;52.386;16.940;2023-04-08T08:40:13;31.70;;;15.47;;
21890;SDS011;11110;52.386;16.940;2023-04-08T08:42:47;24.73;;;13.03;;
21890;SDS011;11110;52.386;16.940;2023-04-08T08:45:18;28.70;;;13.20;;
21890;SDS011;11110;52.386;16.940;2023-04-08T08:47:47;27.47;;;13.10;;
21890;SDS011;11110;52.386;16.940;2023-04-08T08:50:17;28.80;;;13.57;;
21890;SDS011;11110;52.386;16.940;2023-04-08T08:52:50;25.83;;;12.33;;
21890;SDS011;11110;52.386;16.940;2023-04-08T08:55:19;27.47;;;13.23;;
21890;SDS011;11110;52.386;16.940;2023-04-08T08:57:51;28.53;;;13.40;;
21890;SDS011;11110;52.386;16.940;2023-04-08T09:00:29;28.70;;;14.30;;
21890;SDS011;11110;52.386;16.940;2023-04-08T09:03:13;27.53;;;13.60;;
21890;SDS011;11110;52.386;16.940;2023-04-08T09:05:46;29.47;;;13.57;;
21890;SDS011;11110;52.386;16.940;2023-04-08T09:08:29;26.80;;;13.70;;
21890;SDS011;11110;52.386;16.940;2023-04-08T09:11:11;26.70;;;13.93;;
21890;SDS011;11110;52.386;16.940;2023-04-08T09:13:42;28.37;;;14.17;;
21890;SDS011;11110;52.386;16.940;2023-04-08T09:16:12;23.47;;;13.07;;
21890;SDS011;11110;52.386;16.940;2023-04-08T09:18:44;29.57;;;14.23;;
21890;SDS011;11110;52.386;16.940;2023-04-08T09:21:15;26.13;;;13.73;;
21890;SDS011;11110;52.386;16.940;2023-04-08T09:23:46;27.00;;;13.97;;
21890;SDS011;11110;52.386;16.940;2023-04-08T09:26:16;29.53;;;13.97;;
21890;SDS011;11110;52.386;16.940;2023-04-08T09:28:57;29.00;;;14.33;;
21890;SDS011;11110;52.386;16.940;2023-04-08T09:31:37;27.80;;;15.23;;
21890;SDS011;11110;52.386;16.940;2023-04-08T09:34:09;28.40;;;14.50;;
21890;SDS011;11110;52.386;16.940;2023-04-08T09:36:38;31.47;;;14.27;;
21890;SDS011;11110;52.386;16.940;2023-04-08T09:39:08;26.10;;;14.13;;
21890;SDS011;11110;52.386;16.940;2023-04-08T09:41:37;30.50;;;15.50;;
21890;SDS011;11110;52.386;16.940;2023-04-08T09:44:07;30.77;;;14.93;;
21890;SDS011;11110;52.386;16.940;2023-04-08T09:46:38;28.33;;;15.10;;
21890;SDS011;11110;52.386;16.940;2023-04-08T09:49:11;33.83;;;16.50;;
21890;SDS011;11110;52.386;16.940;2023-04-08T09:51:47;33.90;;;17.33;;
21890;SDS011;11110;52.386;16.940;2023-04-08T09:54:24;36.93;;;20.10;;
21890;SDS011;11110;52.386;16.940;2023-04-08T09:57:00;35.47;;;18.73;;
21890;SDS011;11110;52.386;16.940;2023-04-08T09:59:32;31.63;;;16.13;;
21890;SDS011;11110;52.386;16.940;2023-04-08T10:02:04;35.13;;;17.50;;
21890;SDS011;11110;52.386;16.940;2023-04-08T10:04:37;31.57;;;18.47;;
21890;SDS011;11110;52.386;16.940;2023-04-08T10:07:08;33.80;;;17.03;;
21890;SDS011;11110;52.386;16.940;2023-04-08T10:09:38;29.00;;;16.77;;
21890;SDS011;11110;52.386;16.940;2023-04-08T10:12:08;29.47;;;16.63;;
21890;SDS011;11110;52.386;16.940;2023-04-08T10:14:37;26.13;;;14.20;;
21890;SDS011;11110;52.386;16.940;2023-04-08T10:17:24;30.23;;;15.07;;
21890;SDS011;11110;52.386;16.940;2023-04-08T10:19:54;29.60;;;16.83;;
21890;SDS011;11110;52.386;16.940;2023-04-08T10:25:28;29.17;;;16.27;;
21890;SDS011;11110;52.386;16.940;2023-04-08T10:27:58;28.87;;;15.90;;
21890;SDS011;11110;52.386;16.940;2023-04-08T10:30:40;24.17;;;14.53;;
21890;SDS011;11110;52.386;16.940;2023-04-08T10:33:10;30.57;;;16.87;;
21890;SDS011;11110;52.386;16.940;2023-04-08T10:35:41;29.57;;;16.60;;
21890;SDS011;11110;52.386;16.940;2023-04-08T10:38:14;31.87;;;16.17;;
21890;SDS011;11110;52.386;16.940;2023-04-08T10:40:46;26.93;;;14.80;;
21890;SDS011;11110;52.386;16.940;2023-04-08T10:43:16;26.80;;;14.53;;
21890;SDS011;11110;52.386;16.940;2023-04-08T10:45:45;27.23;;;14.30;;
21890;SDS011;11110;52.386;16.940;2023-04-08T10:48:17;23.87;;;12.73;;
21890;SDS011;11110;52.386;16.940;2023-04-08T10:50:51;21.43;;;13.00;;
21890;SDS011;11110;52.386;16.940;2023-04-08T10:53:27;24.20;;;13.07;;
21890;SDS011;11110;52.386;16.940;2023-04-08T10:56:04;20.97;;;12.23;;
21890;SDS011;11110;52.386;16.940;2023-04-08T10:58:34;25.27;;;14.07;;
21890;SDS011;11110;52.386;16.940;2023-04-08T11:01:03;23.53;;;12.97;;
21890;SDS011;11110;52.386;16.940;2023-04-08T11:03:35;22.77;;;13.60;;
21890;SDS011;11110;52.386;16.940;2023-04-08T11:06:04;25.97;;;14.87;;
21890;SDS011;11110;52.386;16.940;2023-04-08T11:08:33;26.53;;;14.23;;
21890;SDS011;11110;52.386;16.940;2023-04-08T11:11:05;26.40;;;13.90;;
21890;SDS011;11110;52.386;16.940;2023-04-08T11:13:38;26.17;;;13.60;;
21890;SDS011;11110;52.386;16.940;2023-04-08T11:16:19;27.63;;;14.93;;
21890;SDS011;11110;52.386;16.940;2023-04-08T11:18:49;23.17;;;13.03;;
21890;SDS011;11110;52.386;16.940;2023-04-08T11:21:18;24.07;;;13.43;;
21890;SDS011;11110;52.386;16.940;2023-04-08T11:23:48;25.73;;;13.80;;
21890;SDS011;11110;52.386;16.940;2023-04-08T11:26:21;23.87;;;12.67;;
21890;SDS011;11110;52.386;16.940;2023-04-08T11:28:50;22.60;;;12.67;;
21890;SDS011;11110;52.386;16.940;2023-04-08T11:31:19;30.03;;;17.67;;
21890;SDS011;11110;52.386;16.940;2023-04-08T11:33:51;21.53;;;12.57;;
21890;SDS011;11110;52.386;16.940;2023-04-08T11:36:21;22.77;;;13.33;;
21890;SDS011;11110;52.386;16.940;2023-04-08T11:38:52;24.50;;;13.13;;
21890;SDS011;11110;52.386;16.940;2023-04-08T11:41:23;22.90;;;12.93;;
21890;SDS011;11110;52.386;16.940;2023-04-08T11:43:52;20.77;;;12.20;;
21890;SDS011;11110;52.386;16.940;2023-04-08T11:46:22;22.90;;;13.17;;
21890;SDS011;11110;52.386;16.940;2023-04-08T11:49:01;22.07;;;13.40;;
21890;SDS011;11110;52.386;16.940;2023-04-08T11:51:31;23.57;;;13.43;;
21890;SDS011;11110;52.386;16.940;2023-04-08T11:54:03;22.57;;;13.43;;
21890;SDS011;11110;52.386;16.940;2023-04-08T11:56:44;21.77;;;12.83;;
21890;SDS011;11110;52.386;16.940;2023-04-08T11:59:13;23.30;;;13.70;;
21890;SDS011;11110;52.386;16.940;2023-04-08T12:01:42;25.13;;;13.90;;
21890;SDS011;11110;52.386;16.940;2023-04-08T12:04:10;27.50;;;15.10;;
21890;SDS011;11110;52.386;16.940;2023-04-08T12:06:39;28.00;;;15.60;;
21890;SDS011;11110;52.386;16.940;2023-04-08T12:09:09;22.83;;;12.40;;
21890;SDS011;11110;52.386;16.940;2023-04-08T12:11:37;25.63;;;14.80;;
21890;SDS011;11110;52.386;16.940;2023-04-08T12:14:07;23.23;;;13.63;;
21890;SDS011;11110;52.386;16.940;2023-04-08T12:16:36;24.13;;;13.03;;
21890;SDS011;11110;52.386;16.940;2023-04-08T12:19:05;24.57;;;13.77;;
21890;SDS011;11110;52.386;16.940;2023-04-08T12:21:33;24.57;;;13.97;;
21890;SDS011;11110;52.386;16.940;2023-04-08T12:24:03;21.55;;;13.10;;
21890;SDS011;11110;52.386;16.940;2023-04-08T12:26:33;22.17;;;12.87;;
21890;SDS011;11110;52.386;16.940;2023-04-08T12:29:01;23.43;;;12.90;;
21890;SDS011;11110;52.386;16.940;2023-04-08T12:31:31;21.20;;;12.20;;
21890;SDS011;11110;52.386;16.940;2023-04-08T12:33:59;18.90;;;12.13;;
21890;SDS011;11110;52.386;16.940;2023-04-08T12:36:28;17.20;;;11.67;;
21890;SDS011;11110;52.386;16.940;2023-04-08T12:38:56;18.70;;;11.83;;
21890;SDS011;11110;52.386;16.940;2023-04-08T12:41:25;20.75;;;12.82;;
21890;SDS011;11110;52.386;16.940;2023-04-08T12:43:53;19.23;;;12.00;;
21890;SDS011;11110;52.386;16.940;2023-04-08T12:46:22;20.42;;;12.10;;
21890;SDS011;11110;52.386;16.940;2023-04-08T12:48:52;23.45;;;12.90;;
21890;SDS011;11110;52.386;16.940;2023-04-08T12:51:29;18.17;;;11.77;;
21890;SDS011;11110;52.386;16.940;2023-04-08T12:53:58;22.45;;;13.15;;
21890;SDS011;11110;52.386;16.940;2023-04-08T12:56:27;19.73;;;12.50;;
21890;SDS011;11110;52.386;16.940;2023-04-08T12:58:56;19.90;;;12.07;;
21890;SDS011;11110;52.386;16.940;2023-04-08T13:01:25;20.65;;;12.65;;
21890;SDS011;11110;52.386;16.940;2023-04-08T13:03:55;19.15;;;12.35;;
21890;SDS011;11110;52.386;16.940;2023-04-08T13:06:24;18.65;;;12.23;;
21890;SDS011;11110;52.386;16.940;2023-04-08T13:08:53;16.85;;;11.02;;
21890;SDS011;11110;52.386;16.940;2023-04-08T13:11:22;21.00;;;12.63;;
21890;SDS011;11110;52.386;16.940;2023-04-08T13:13:50;21.98;;;13.73;;
21890;SDS011;11110;52.386;16.940;2023-04-08T13:16:19;18.13;;;11.90;;
21890;SDS011;11110;52.386;16.940;2023-04-08T13:18:47;22.13;;;12.30;;
21890;SDS011;11110;52.386;16.940;2023-04-08T13:21:18;19.08;;;12.23;;
21890;SDS011;11110;52.386;16.940;2023-04-08T13:23:46;19.50;;;12.05;;
21890;SDS011;11110;52.386;16.940;2023-04-08T13:26:15;19.00;;;11.43;;
21890;SDS011;11110;52.386;16.940;2023-04-08T13:28:43;16.60;;;11.07;;
21890;SDS011;11110;52.386;16.940;2023-04-08T13:31:23;17.58;;;11.07;;
21890;SDS011;11110;52.386;16.940;2023-04-08T13:33:52;15.15;;;10.50;;
21890;SDS011;11110;52.386;16.940;2023-04-08T13:36:25;17.35;;;10.90;;
21890;SDS011;11110;52.386;16.940;2023-04-08T13:38:54;16.20;;;11.23;;
21890;SDS011;11110;52.386;16.940;2023-04-08T13:41:23;13.13;;;9.45;;
21890;SDS011;11110;52.386;16.940;2023-04-08T13:43:53;17.20;;;10.98;;
21890;SDS011;11110;52.386;16.940;2023-04-08T13:46:23;17.05;;;10.95;;
21890;SDS011;11110;52.386;16.940;2023-04-08T13:48:51;14.88;;;10.35;;
21890;SDS011;11110;52.386;16.940;2023-04-08T13:51:20;16.77;;;10.43;;
21890;SDS011;11110;52.386;16.940;2023-04-08T13:53:50;15.93;;;10.90;;
21890;SDS011;11110;52.386;16.940;2023-04-08T13:56:19;16.15;;;10.75;;
21890;SDS011;11110;52.386;16.940;2023-04-08T13:58:47;18.23;;;10.93;;
21890;SDS011;11110;52.386;16.940;2023-04-08T14:01:23;16.98;;;10.95;;
21890;SDS011;11110;52.386;16.940;2023-04-08T14:03:52;14.00;;;10.20;;
21890;SDS011;11110;52.386;16.940;2023-04-08T14:06:20;13.98;;;9.82;;
21890;SDS011;11110;52.386;16.940;2023-04-08T14:08:50;15.00;;;9.68;;
21890;SDS011;11110;52.386;16.940;2023-04-08T14:11:19;16.67;;;10.60;;
21890;SDS011;11110;52.386;16.940;2023-04-08T14:13:48;13.35;;;10.13;;
21890;SDS011;11110;52.386;16.940;2023-04-08T14:16:16;16.35;;;11.00;;
21890;SDS011;11110;52.386;16.940;2023-04-08T14:18:45;18.60;;;11.73;;
21890;SDS011;11110;52.386;16.940;2023-04-08T14:21:14;14.68;;;10.73;;
21890;SDS011;11110;52.386;16.940;2023-04-08T14:23:43;15.85;;;11.43;;
21890;SDS011;11110;52.386;16.940;2023-04-08T14:26:13;17.63;;;11.80;;
21890;SDS011;11110;52.386;16.940;2023-04-08T14:28:42;13.70;;;9.77;;
21890;SDS011;11110;52.386;16.940;2023-04-08T14:31:10;14.48;;;10.32;;